Time;durP1;ratioP1;P1;durP2;ratioP2;P2;SDS_P1;SDS_P2;PMS_P1;PMS_P2;Temp;Humidity;BMP_temperature;BMP_pressure;BME280_temperature;BME280_humidity;BME280_pressure;Samples;Min_cycle;Max_cycle;Signal;HPM_P1;HPM_P2
2022/12/14 00:01:41;;;;;;;0.88;0.80;;;;;;;;;;4544273;28;20119;-63
2022/12/14 00:03:52;;;;;;;1.17;1.08;;;;;;;;;;4545546;28;20392;-63
2022/12/14 00:06:12;;;;;;;1.10;1.00;;;;;;;;;;4547236;28;20036;-64
2022/12/14 00:08:22;;;;;;;1.20;1.10;;;;;;;;;;4545372;28;20052;-63
2022/12/14 00:10:33;;;;;;;1.05;0.90;;;;;;;;;;4545662;28;20043;-63
2022/12/14 00:12:44;;;;;;;1.13;1.02;;;;;;;;;;4544577;28;20111;-64
2022/12/14 00:14:54;;;;;;;1.10;1.00;;;;;;;;;;4545535;28;20079;-63
2022/12/14 00:17:04;;;;;;;0.90;0.90;;;;;;;;;;4544950;28;20037;-64
2022/12/14 00:19:15;;;;;;;0.98;0.90;;;;;;;;;;4545459;28;20122;-64
2022/12/14 00:21:25;;;;;;;1.00;0.90;;;;;;;;;;4544812;28;20041;-64
2022/12/14 00:23:37;;;;;;;1.05;0.95;;;;;;;;;;4544791;28;20040;-64
2022/12/14 00:25:47;;;;;;;1.13;1.00;;;;;;;;;;4545594;28;20032;-63
2022/12/14 00:27:57;;;;;;;1.23;1.00;;;;;;;;;;4545670;28;20536;-64
2022/12/14 00:30:08;;;;;;;1.08;0.98;;;;;;;;;;4547375;28;20033;-63
2022/12/14 00:32:18;;;;;;;1.25;1.10;;;;;;;;;;4546324;28;20044;-64
2022/12/14 00:34:29;;;;;;;0.93;0.93;;;;;;;;;;4547382;28;20028;-64
2022/12/14 00:36:40;;;;;;;0.90;0.90;;;;;;;;;;4546828;28;20053;-64
2022/12/14 00:38:50;;;;;;;1.10;1.00;;;;;;;;;;4546385;28;20119;-64
2022/12/14 00:41:00;;;;;;;1.08;0.98;;;;;;;;;;4544577;28;20068;-64
2022/12/14 00:43:11;;;;;;;1.17;1.08;;;;;;;;;;4547189;28;20450;-64
2022/12/14 00:45:21;;;;;;;1.08;0.98;;;;;;;;;;4527738;28;20033;-63
2022/12/14 00:47:31;;;;;;;0.82;0.82;;;;;;;;;;4545832;28;20033;-66
2022/12/14 00:49:42;;;;;;;0.90;0.90;;;;;;;;;;4546038;28;20025;-64
2022/12/14 00:51:52;;;;;;;1.48;1.20;;;;;;;;;;4546055;28;20478;-64
2022/12/14 00:54:02;;;;;;;1.00;0.93;;;;;;;;;;4546386;28;20099;-63
2022/12/14 00:56:12;;;;;;;1.20;1.10;;;;;;;;;;4546441;28;20033;-65
2022/12/14 00:58:23;;;;;;;0.80;0.80;;;;;;;;;;4544357;28;20048;-64
2022/12/14 01:00:33;;;;;;;1.17;1.08;;;;;;;;;;4544913;28;20438;-64
2022/12/14 01:02:43;;;;;;;1.02;0.98;;;;;;;;;;4546327;28;20033;-64
2022/12/14 01:04:55;;;;;;;1.10;1.00;;;;;;;;;;4544265;28;20573;-64
2022/12/14 01:07:05;;;;;;;0.90;0.90;;;;;;;;;;4545482;28;20036;-64
2022/12/14 01:09:16;;;;;;;0.98;0.90;;;;;;;;;;4548796;28;20037;-63
2022/12/14 01:11:27;;;;;;;1.42;1.00;;;;;;;;;;4548623;28;20039;-64
2022/12/14 01:13:37;;;;;;;1.00;0.90;;;;;;;;;;4547699;28;20732;-64
2022/12/14 01:15:48;;;;;;;0.93;0.90;;;;;;;;;;4549403;28;20037;-63
2022/12/14 01:17:58;;;;;;;1.00;0.90;;;;;;;;;;4549380;28;20128;-64
2022/12/14 01:20:09;;;;;;;1.20;1.10;;;;;;;;;;4547070;28;20037;-63
2022/12/14 01:22:19;;;;;;;1.08;0.98;;;;;;;;;;4548439;28;20928;-63
2022/12/14 01:24:30;;;;;;;0.98;0.90;;;;;;;;;;4548686;28;20116;-64
2022/12/14 01:26:40;;;;;;;0.80;0.80;;;;;;;;;;4548281;28;20508;-63
2022/12/14 01:28:51;;;;;;;1.10;1.00;;;;;;;;;;4535896;28;20122;-64
2022/12/14 01:31:09;;;;;;;1.17;1.00;;;;;;;;;;4547574;28;20028;-64
2022/12/14 01:33:19;;;;;;;1.10;1.00;;;;;;;;;;4548173;28;20074;-64
2022/12/14 01:35:29;;;;;;;1.10;1.00;;;;;;;;;;4547332;28;20396;-64
2022/12/14 01:37:39;;;;;;;1.00;1.00;;;;;;;;;;4548170;28;20041;-64
2022/12/14 01:39:50;;;;;;;0.80;0.80;;;;;;;;;;4548483;28;20072;-64
2022/12/14 01:42:00;;;;;;;1.00;0.90;;;;;;;;;;4546930;28;20036;-64
2022/12/14 01:44:10;;;;;;;0.95;0.85;;;;;;;;;;4545237;28;20047;-63
2022/12/14 01:46:24;;;;;;;1.10;1.00;;;;;;;;;;4547020;28;20131;-64
2022/12/14 01:48:34;;;;;;;0.80;0.80;;;;;;;;;;4548304;28;20043;-64
2022/12/14 01:50:44;;;;;;;0.88;0.88;;;;;;;;;;4547533;28;20048;-64
2022/12/14 01:52:58;;;;;;;1.05;0.98;;;;;;;;;;4528636;28;20044;-63
2022/12/14 01:55:26;;;;;;;0.82;0.80;;;;;;;;;;4530299;28;20041;-64
2022/12/14 01:57:40;;;;;;;1.05;0.98;;;;;;;;;;4546543;28;20219;-63
2022/12/14 01:59:50;;;;;;;0.82;0.82;;;;;;;;;;4548564;28;20643;-64
2022/12/14 02:02:02;;;;;;;0.93;0.90;;;;;;;;;;4535907;28;20045;-63
2022/12/14 02:04:13;;;;;;;0.93;0.90;;;;;;;;;;4546843;28;20536;-64
2022/12/14 02:06:34;;;;;;;0.80;0.80;;;;;;;;;;4536399;28;20072;-64
2022/12/14 02:08:46;;;;;;;0.98;0.90;;;;;;;;;;4527934;28;20571;-63
2022/12/14 02:10:57;;;;;;;0.90;0.90;;;;;;;;;;4547570;28;20127;-63
2022/12/14 02:13:13;;;;;;;0.93;0.90;;;;;;;;;;4544557;28;20291;-63
2022/12/14 02:15:23;;;;;;;1.10;1.00;;;;;;;;;;4528612;28;21289;-63
2022/12/14 02:17:34;;;;;;;1.20;1.10;;;;;;;;;;4548229;28;20045;-63
2022/12/14 02:19:45;;;;;;;0.95;0.95;;;;;;;;;;4547467;28;20046;-64
2022/12/14 02:21:59;;;;;;;0.75;0.75;;;;;;;;;;4547337;28;20104;-64
2022/12/14 02:24:27;;;;;;;0.98;0.93;;;;;;;;;;4544941;28;20029;-64
2022/12/14 02:26:48;;;;;;;1.23;1.02;;;;;;;;;;4546829;28;20160;-63
2022/12/14 02:29:02;;;;;;;0.80;0.80;;;;;;;;;;4547412;28;20052;-63
2022/12/14 02:31:24;;;;;;;0.98;0.90;;;;;;;;;;4545657;28;20083;-63
2022/12/14 02:33:44;;;;;;;0.85;0.80;;;;;;;;;;4545122;28;20047;-63
2022/12/14 02:35:54;;;;;;;1.10;1.00;;;;;;;;;;4546276;28;20624;-63
2022/12/14 02:38:11;;;;;;;0.90;0.90;;;;;;;;;;4546047;28;20261;-64
2022/12/14 02:40:28;;;;;;;1.00;0.90;;;;;;;;;;4546788;28;20032;-63
2022/12/14 02:42:57;;;;;;;0.70;0.70;;;;;;;;;;4546272;28;20567;-63
2022/12/14 02:45:16;;;;;;;0.88;0.88;;;;;;;;;;4546376;28;20043;-63
2022/12/14 02:47:33;;;;;;;0.80;0.80;;;;;;;;;;4548321;28;20041;-63
2022/12/14 02:49:55;;;;;;;0.80;0.80;;;;;;;;;;4546645;28;20029;-64
2022/12/14 02:52:15;;;;;;;0.70;0.70;;;;;;;;;;4545396;28;20037;-64
2022/12/14 02:54:31;;;;;;;1.27;0.90;;;;;;;;;;4546409;28;20033;-63
2022/12/14 02:56:47;;;;;;;0.80;0.80;;;;;;;;;;4547820;28;20029;-63
2022/12/14 02:58:57;;;;;;;0.98;0.88;;;;;;;;;;4529650;28;20067;-64
2022/12/14 03:01:13;;;;;;;0.70;0.70;;;;;;;;;;4546681;28;20044;-64
2022/12/14 03:03:23;;;;;;;0.82;0.82;;;;;;;;;;4547127;28;20053;-63
2022/12/14 03:05:34;;;;;;;0.70;0.70;;;;;;;;;;4545257;28;20044;-63
2022/12/14 03:07:46;;;;;;;0.70;0.70;;;;;;;;;;4540689;28;20071;-63
2022/12/14 03:10:18;;;;;;;0.80;0.80;;;;;;;;;;4546484;28;20037;-63
2022/12/14 03:12:28;;;;;;;0.98;0.88;;;;;;;;;;4546029;28;20033;-63
2022/12/14 03:14:45;;;;;;;0.80;0.80;;;;;;;;;;4546156;28;20028;-64
2022/12/14 03:16:59;;;;;;;0.75;0.75;;;;;;;;;;4547097;28;20045;-64
2022/12/14 03:19:09;;;;;;;0.60;0.60;;;;;;;;;;4543746;28;20048;-63
2022/12/14 03:21:23;;;;;;;0.85;0.85;;;;;;;;;;4529848;28;20025;-64
2022/12/14 03:23:37;;;;;;;1.00;0.90;;;;;;;;;;4548076;28;20116;-64
2022/12/14 03:25:50;;;;;;;0.70;0.70;;;;;;;;;;4545251;28;20238;-64
2022/12/14 03:28:04;;;;;;;0.82;0.80;;;;;;;;;;4547291;28;20122;-64
2022/12/14 03:30:15;;;;;;;0.80;0.80;;;;;;;;;;4544432;28;20033;-63
2022/12/14 03:32:28;;;;;;;0.95;0.90;;;;;;;;;;4546882;28;20041;-64
2022/12/14 03:34:41;;;;;;;0.95;0.80;;;;;;;;;;4544965;28;20044;-64
2022/12/14 03:37:11;;;;;;;0.90;0.90;;;;;;;;;;4544965;28;20040;-64
2022/12/14 03:39:25;;;;;;;0.82;0.80;;;;;;;;;;4545978;28;20119;-64
2022/12/14 03:41:35;;;;;;;1.00;0.90;;;;;;;;;;4546171;28;20087;-63
2022/12/14 03:44:21;;;;;;;0.80;0.80;;;;;;;;;;4547650;28;20507;-64
2022/12/14 03:46:46;;;;;;;0.73;0.73;;;;;;;;;;4505924;28;20073;-63
2022/12/14 03:49:06;;;;;;;0.80;0.80;;;;;;;;;;4536478;28;20064;-64
2022/12/14 03:51:35;;;;;;;1.10;1.00;;;;;;;;;;4544629;28;20135;-64
2022/12/14 03:53:48;;;;;;;0.70;0.70;;;;;;;;;;4544166;28;20076;-64
2022/12/14 03:56:08;;;;;;;0.70;0.70;;;;;;;;;;4544473;28;20190;-64
2022/12/14 03:58:36;;;;;;;0.80;0.80;;;;;;;;;;4545760;28;20032;-64
2022/12/14 04:00:52;;;;;;;0.70;0.70;;;;;;;;;;4545663;28;20040;-63
2022/12/14 04:03:12;;;;;;;0.70;0.70;;;;;;;;;;4545351;28;20828;-64
2022/12/14 04:05:22;;;;;;;0.77;0.70;;;;;;;;;;4546599;28;20040;-63
2022/12/14 04:07:36;;;;;;;0.80;0.80;;;;;;;;;;4529272;28;20044;-64
2022/12/14 04:09:59;;;;;;;1.02;0.93;;;;;;;;;;4547088;28;20040;-63
2022/12/14 04:19:52;;;;;;;0.77;0.77;;;;;;;;;;4547212;28;20099;-63
2022/12/14 04:22:05;;;;;;;0.95;0.95;;;;;;;;;;4543046;28;20025;-63
2022/12/14 04:26:53;;;;;;;0.70;0.70;;;;;;;;;;4545820;28;20036;-63
2022/12/14 04:31:36;;;;;;;0.85;0.85;;;;;;;;;;4544572;28;20032;-63
2022/12/14 04:33:50;;;;;;;0.98;0.88;;;;;;;;;;4545274;28;20040;-64
2022/12/14 04:36:01;;;;;;;0.80;0.80;;;;;;;;;;4546464;28;20084;-64
2022/12/14 04:38:16;;;;;;;0.70;0.70;;;;;;;;;;4546368;28;20033;-63
2022/12/14 04:40:30;;;;;;;0.95;0.90;;;;;;;;;;4545053;28;20540;-64
2022/12/14 04:42:44;;;;;;;1.00;0.90;;;;;;;;;;4545412;28;20090;-63
2022/12/14 04:44:57;;;;;;;0.95;0.85;;;;;;;;;;4546242;28;20986;-63
2022/12/14 04:47:09;;;;;;;0.73;0.73;;;;;;;;;;4545331;28;20040;-63
2022/12/14 04:49:28;;;;;;;0.70;0.70;;;;;;;;;;4546356;28;20156;-63
2022/12/14 04:52:02;;;;;;;0.80;0.80;;;;;;;;;;4543320;28;20043;-64
2022/12/14 04:54:31;;;;;;;0.80;0.80;;;;;;;;;;4544616;28;20033;-63
2022/12/14 04:56:47;;;;;;;0.70;0.70;;;;;;;;;;4545617;28;20033;-63
2022/12/14 04:58:58;;;;;;;0.80;0.80;;;;;;;;;;4544570;28;20614;-63
2022/12/14 05:01:21;;;;;;;0.70;0.70;;;;;;;;;;4544958;28;20021;-63
2022/12/14 05:03:37;;;;;;;0.60;0.60;;;;;;;;;;4545337;28;20120;-63
2022/12/14 05:06:06;;;;;;;0.70;0.70;;;;;;;;;;4537034;28;20029;-63
2022/12/14 05:08:40;;;;;;;0.70;0.70;;;;;;;;;;4546119;28;20752;-64
2022/12/14 05:11:02;;;;;;;0.70;0.70;;;;;;;;;;4509212;28;20061;-63
2022/12/14 05:13:17;;;;;;;0.70;0.70;;;;;;;;;;4545568;28;20123;-64
2022/12/14 05:15:30;;;;;;;0.80;0.80;;;;;;;;;;4544944;28;20931;-64
2022/12/14 05:17:41;;;;;;;0.80;0.80;;;;;;;;;;4538045;28;20045;-63
2022/12/14 05:19:53;;;;;;;0.80;0.80;;;;;;;;;;4544991;28;20025;-63
2022/12/14 05:22:04;;;;;;;0.90;0.80;;;;;;;;;;4543985;28;20151;-64
2022/12/14 05:24:15;;;;;;;0.90;0.70;;;;;;;;;;4545574;28;20123;-64
2022/12/14 05:26:26;;;;;;;0.75;0.75;;;;;;;;;;4545657;28;20548;-64
2022/12/14 05:28:36;;;;;;;0.70;0.70;;;;;;;;;;4545962;28;20045;-63
2022/12/14 05:30:46;;;;;;;0.80;0.80;;;;;;;;;;4533332;28;20025;-64
2022/12/14 05:32:57;;;;;;;0.60;0.60;;;;;;;;;;4536267;28;20040;-64
2022/12/14 05:35:10;;;;;;;0.80;0.80;;;;;;;;;;4528325;28;20047;-64
2022/12/14 05:37:20;;;;;;;0.68;0.68;;;;;;;;;;4545207;28;20040;-63
2022/12/14 05:39:30;;;;;;;0.82;0.82;;;;;;;;;;4545296;28;20021;-64
2022/12/14 05:41:41;;;;;;;0.63;0.63;;;;;;;;;;4543864;28;20621;-64
2022/12/14 05:43:51;;;;;;;0.70;0.70;;;;;;;;;;4546142;28;20071;-63
2022/12/14 05:46:02;;;;;;;0.80;0.80;;;;;;;;;;4543721;28;20500;-63
2022/12/14 05:48:13;;;;;;;0.95;0.90;;;;;;;;;;4544984;28;20068;-63
2022/12/14 05:50:23;;;;;;;0.82;0.80;;;;;;;;;;4536071;28;20112;-64
2022/12/14 05:52:33;;;;;;;0.90;0.80;;;;;;;;;;4543147;28;20045;-63
2022/12/14 05:54:44;;;;;;;0.70;0.70;;;;;;;;;;4543510;28;20037;-63
2022/12/14 05:56:54;;;;;;;0.75;0.75;;;;;;;;;;4549150;28;20071;-63
2022/12/14 05:59:04;;;;;;;0.80;0.80;;;;;;;;;;4547360;28;20128;-64
2022/12/14 06:01:15;;;;;;;0.80;0.80;;;;;;;;;;4547980;28;20127;-63
2022/12/14 06:03:25;;;;;;;0.80;0.80;;;;;;;;;;4533834;28;20504;-63
2022/12/14 06:05:36;;;;;;;0.70;0.70;;;;;;;;;;4547707;28;20029;-64
2022/12/14 06:07:46;;;;;;;0.80;0.80;;;;;;;;;;4546854;28;20481;-64
2022/12/14 06:09:56;;;;;;;0.80;0.80;;;;;;;;;;4547087;28;20064;-64
2022/12/14 06:12:06;;;;;;;0.80;0.80;;;;;;;;;;4546264;28;20111;-63
2022/12/14 06:14:17;;;;;;;0.88;0.88;;;;;;;;;;4547302;28;20045;-64
2022/12/14 06:16:27;;;;;;;0.80;0.80;;;;;;;;;;4547997;28;20036;-64
2022/12/14 06:18:45;;;;;;;0.80;0.80;;;;;;;;;;4548072;28;20095;-64
2022/12/14 06:20:55;;;;;;;0.80;0.80;;;;;;;;;;4548090;28;20091;-64
2022/12/14 06:23:05;;;;;;;0.88;0.80;;;;;;;;;;4548835;28;20092;-63
2022/12/14 06:25:16;;;;;;;0.63;0.63;;;;;;;;;;4547051;28;20037;-64
2022/12/14 06:27:26;;;;;;;0.88;0.70;;;;;;;;;;4548170;28;20444;-64
2022/12/14 06:29:36;;;;;;;0.68;0.68;;;;;;;;;;4546431;28;20607;-63
2022/12/14 06:31:46;;;;;;;0.75;0.73;;;;;;;;;;4547145;28;20555;-63
2022/12/14 06:33:58;;;;;;;0.80;0.80;;;;;;;;;;4546165;28;20051;-63
2022/12/14 06:36:21;;;;;;;0.75;0.75;;;;;;;;;;4548954;28;20041;-64
2022/12/14 06:38:31;;;;;;;0.73;0.73;;;;;;;;;;4539623;28;20040;-63
2022/12/14 06:40:41;;;;;;;0.65;0.65;;;;;;;;;;4546973;28;20024;-63
2022/12/14 06:42:52;;;;;;;0.68;0.68;;;;;;;;;;4549219;28;20041;-63
2022/12/14 06:45:02;;;;;;;0.77;0.77;;;;;;;;;;4547303;28;20104;-63
2022/12/14 06:47:12;;;;;;;0.70;0.70;;;;;;;;;;4547280;28;20032;-63
2022/12/14 06:49:23;;;;;;;0.70;0.70;;;;;;;;;;4547270;28;20041;-63
2022/12/14 06:51:39;;;;;;;0.75;0.73;;;;;;;;;;4546048;28;20095;-63
2022/12/14 06:53:50;;;;;;;0.80;0.80;;;;;;;;;;4540899;28;20189;-63
2022/12/14 06:56:06;;;;;;;0.80;0.80;;;;;;;;;;4547428;28;20029;-63
2022/12/14 06:58:16;;;;;;;1.00;0.90;;;;;;;;;;4546665;28;20040;-63
2022/12/14 07:00:26;;;;;;;0.70;0.70;;;;;;;;;;4548890;28;20029;-63
2022/12/14 07:02:37;;;;;;;0.63;0.63;;;;;;;;;;4545819;28;20033;-63
2022/12/14 07:04:47;;;;;;;0.73;0.68;;;;;;;;;;4546384;28;20450;-63
2022/12/14 07:06:57;;;;;;;0.70;0.70;;;;;;;;;;4545303;28;20416;-64
2022/12/14 07:09:10;;;;;;;0.70;0.70;;;;;;;;;;4546305;28;20043;-63
2022/12/14 07:11:21;;;;;;;0.80;0.80;;;;;;;;;;4547947;28;20068;-63
2022/12/14 07:13:31;;;;;;;0.80;0.80;;;;;;;;;;4545849;28;20132;-63
2022/12/14 07:15:42;;;;;;;0.80;0.80;;;;;;;;;;4545065;28;20072;-64
2022/12/14 07:17:52;;;;;;;0.75;0.75;;;;;;;;;;4531723;28;20037;-64
2022/12/14 07:20:03;;;;;;;0.70;0.70;;;;;;;;;;4547850;28;20123;-63
2022/12/14 07:22:14;;;;;;;0.70;0.70;;;;;;;;;;4547150;28;20669;-63
2022/12/14 07:24:24;;;;;;;0.80;0.80;;;;;;;;;;4546286;28;20111;-63
2022/12/14 07:26:36;;;;;;;1.05;0.80;;;;;;;;;;4532642;28;20048;-64
2022/12/14 07:28:46;;;;;;;0.70;0.70;;;;;;;;;;4545392;28;20037;-63
2022/12/14 07:30:58;;;;;;;0.70;0.70;;;;;;;;;;4540130;28;20041;-63
2022/12/14 07:33:09;;;;;;;0.60;0.60;;;;;;;;;;4543797;28;20048;-63
2022/12/14 07:35:19;;;;;;;0.63;0.63;;;;;;;;;;4545457;28;20029;-63
2022/12/14 07:37:29;;;;;;;0.70;0.70;;;;;;;;;;4545544;28;20032;-64
2022/12/14 07:39:40;;;;;;;0.70;0.70;;;;;;;;;;4544516;28;20041;-64
2022/12/14 07:41:50;;;;;;;0.65;0.63;;;;;;;;;;4544865;28;20029;-64
2022/12/14 07:44:04;;;;;;;0.90;0.88;;;;;;;;;;4545371;28;20029;-63
2022/12/14 07:46:17;;;;;;;0.75;0.75;;;;;;;;;;4545752;28;20029;-63
2022/12/14 07:48:28;;;;;;;0.77;0.75;;;;;;;;;;4545169;28;20040;-63
2022/12/14 07:50:38;;;;;;;0.80;0.80;;;;;;;;;;4544379;28;20032;-64
2022/12/14 07:52:48;;;;;;;0.70;0.70;;;;;;;;;;4546094;28;20036;-64
2022/12/14 07:54:59;;;;;;;0.80;0.80;;;;;;;;;;4544565;28;20112;-63
2022/12/14 07:57:09;;;;;;;0.95;0.80;;;;;;;;;;4544741;28;20041;-64
2022/12/14 07:59:20;;;;;;;0.70;0.70;;;;;;;;;;4544814;28;20040;-63
2022/12/14 08:01:31;;;;;;;0.80;0.80;;;;;;;;;;4545537;28;20028;-63
2022/12/14 08:03:43;;;;;;;0.70;0.70;;;;;;;;;;4544915;28;20146;-64
2022/12/14 08:05:53;;;;;;;0.70;0.70;;;;;;;;;;4544923;28;20037;-63
2022/12/14 08:08:04;;;;;;;0.63;0.60;;;;;;;;;;4546491;28;20560;-64
2022/12/14 08:10:14;;;;;;;0.80;0.80;;;;;;;;;;4544305;28;20564;-64
2022/12/14 08:12:24;;;;;;;0.80;0.80;;;;;;;;;;4545042;28;20055;-63
2022/12/14 08:14:34;;;;;;;0.82;0.70;;;;;;;;;;4544943;28;20553;-64
2022/12/14 08:16:45;;;;;;;0.77;0.77;;;;;;;;;;4543931;28;20175;-64
2022/12/14 08:18:57;;;;;;;0.80;0.80;;;;;;;;;;4525637;28;20052;-63
2022/12/14 08:21:08;;;;;;;0.60;0.60;;;;;;;;;;4545082;28;20076;-64
2022/12/14 08:23:19;;;;;;;0.70;0.70;;;;;;;;;;4545098;28;20096;-63
2022/12/14 08:25:29;;;;;;;0.80;0.80;;;;;;;;;;4544951;28;20056;-64
2022/12/14 08:27:39;;;;;;;0.73;0.73;;;;;;;;;;4544424;28;20560;-64
2022/12/14 08:29:50;;;;;;;1.25;0.80;;;;;;;;;;4543569;28;20454;-64
2022/12/14 08:32:00;;;;;;;0.70;0.70;;;;;;;;;;4545011;28;20397;-63
2022/12/14 08:34:10;;;;;;;0.80;0.80;;;;;;;;;;4545467;28;20041;-64
2022/12/14 08:36:23;;;;;;;0.82;0.80;;;;;;;;;;4541620;28;20068;-64
2022/12/14 08:38:33;;;;;;;0.88;0.80;;;;;;;;;;4543829;28;20044;-63
2022/12/14 08:40:43;;;;;;;0.82;0.80;;;;;;;;;;4544444;28;20051;-63
2022/12/14 08:42:54;;;;;;;0.80;0.80;;;;;;;;;;4545001;28;20124;-63
2022/12/14 08:45:04;;;;;;;0.80;0.80;;;;;;;;;;4544231;28;20051;-64
2022/12/14 08:47:15;;;;;;;0.80;0.70;;;;;;;;;;4543943;28;20048;-63
2022/12/14 08:49:25;;;;;;;0.80;0.80;;;;;;;;;;4545259;28;20084;-63
2022/12/14 08:51:38;;;;;;;0.80;0.80;;;;;;;;;;4544128;28;20453;-63
2022/12/14 08:53:50;;;;;;;0.68;0.68;;;;;;;;;;4544740;28;20040;-63
2022/12/14 08:56:04;;;;;;;0.70;0.70;;;;;;;;;;4544016;28;20035;-64
2022/12/14 08:58:15;;;;;;;0.75;0.70;;;;;;;;;;4545078;28;20037;-63
2022/12/14 09:00:25;;;;;;;0.80;0.60;;;;;;;;;;4544835;28;20041;-64
2022/12/14 09:02:35;;;;;;;0.70;0.70;;;;;;;;;;4545256;28;20172;-63
2022/12/14 09:04:46;;;;;;;0.60;0.60;;;;;;;;;;4544585;28;20503;-63
2022/12/14 09:06:56;;;;;;;0.70;0.70;;;;;;;;;;4544428;28;20119;-64
2022/12/14 09:09:07;;;;;;;0.73;0.73;;;;;;;;;;4545792;28;20033;-63
2022/12/14 09:11:18;;;;;;;1.00;0.90;;;;;;;;;;4545296;28;20049;-63
2022/12/14 09:13:29;;;;;;;0.70;0.70;;;;;;;;;;4545668;28;20045;-63
2022/12/14 09:15:39;;;;;;;0.75;0.75;;;;;;;;;;4543620;28;20029;-64
2022/12/14 09:17:49;;;;;;;0.70;0.70;;;;;;;;;;4544939;28;21013;-64
2022/12/14 09:20:00;;;;;;;0.63;0.60;;;;;;;;;;4544170;28;20056;-63
2022/12/14 09:22:12;;;;;;;0.75;0.70;;;;;;;;;;4543949;28;20169;-64
2022/12/14 09:24:23;;;;;;;0.70;0.70;;;;;;;;;;4543757;28;20021;-64
2022/12/14 09:26:33;;;;;;;0.82;0.82;;;;;;;;;;4545417;28;20172;-64
2022/12/14 09:28:45;;;;;;;0.60;0.60;;;;;;;;;;4545098;28;20670;-63
2022/12/14 09:30:59;;;;;;;1.45;0.80;;;;;;;;;;4545221;28;20068;-63
2022/12/14 09:33:09;;;;;;;0.60;0.60;;;;;;;;;;4548005;28;20588;-63
2022/12/14 09:35:21;;;;;;;0.70;0.70;;;;;;;;;;4537057;28;20049;-63
2022/12/14 09:37:32;;;;;;;0.68;0.68;;;;;;;;;;4546716;28;20041;-63
2022/12/14 09:39:45;;;;;;;0.70;0.70;;;;;;;;;;4547762;28;20041;-64
2022/12/14 09:42:07;;;;;;;0.73;0.73;;;;;;;;;;4546572;28;20091;-64
2022/12/14 09:44:37;;;;;;;0.80;0.80;;;;;;;;;;4547392;28;20032;-64
2022/12/14 09:46:50;;;;;;;0.63;0.60;;;;;;;;;;4546391;28;20041;-64
2022/12/14 09:49:01;;;;;;;0.70;0.60;;;;;;;;;;4547564;28;20076;-64
2022/12/14 09:51:16;;;;;;;0.77;0.77;;;;;;;;;;4547618;28;20540;-64
2022/12/14 09:53:26;;;;;;;0.60;0.60;;;;;;;;;;4546140;28;20044;-64
2022/12/14 09:55:41;;;;;;;0.70;0.70;;;;;;;;;;4547285;28;20808;-64
2022/12/14 09:57:57;;;;;;;0.70;0.70;;;;;;;;;;4548075;28;20057;-64
2022/12/14 10:00:18;;;;;;;0.60;0.60;;;;;;;;;;4546268;28;20083;-64
2022/12/14 10:02:51;;;;;;;0.60;0.60;;;;;;;;;;4546925;28;20584;-64
2022/12/14 10:05:10;;;;;;;0.77;0.70;;;;;;;;;;4547274;28;20045;-64
2022/12/14 10:07:31;;;;;;;0.70;0.70;;;;;;;;;;4530084;28;20091;-64
2022/12/14 10:09:47;;;;;;;0.63;0.63;;;;;;;;;;4546833;28;20049;-64
2022/12/14 10:11:57;;;;;;;0.80;0.80;;;;;;;;;;4546397;28;20488;-64
2022/12/14 10:14:17;;;;;;;0.80;0.75;;;;;;;;;;4547240;28;20036;-64
2022/12/14 10:16:30;;;;;;;0.70;0.70;;;;;;;;;;4547237;28;20024;-64
2022/12/14 10:18:47;;;;;;;1.13;0.80;;;;;;;;;;4546981;28;20037;-64
2022/12/14 10:21:02;;;;;;;0.70;0.70;;;;;;;;;;4547025;28;20677;-64
2022/12/14 10:23:13;;;;;;;0.95;0.88;;;;;;;;;;4528069;28;20049;-64
2022/12/14 10:25:25;;;;;;;0.70;0.70;;;;;;;;;;4547536;28;20059;-64
2022/12/14 10:27:36;;;;;;;0.80;0.80;;;;;;;;;;4546159;28;20033;-64
2022/12/14 10:29:51;;;;;;;0.75;0.70;;;;;;;;;;4547139;28;21015;-64
2022/12/14 10:32:20;;;;;;;0.70;0.70;;;;;;;;;;4545998;28;20025;-64
2022/12/14 10:34:31;;;;;;;0.65;0.65;;;;;;;;;;4545196;28;20045;-64
2022/12/14 10:36:50;;;;;;;0.75;0.65;;;;;;;;;;4545551;28;20084;-64
2022/12/14 10:39:05;;;;;;;0.70;0.70;;;;;;;;;;4546626;28;20095;-64
2022/12/14 10:41:24;;;;;;;0.73;0.73;;;;;;;;;;4545135;28;20029;-64
2022/12/14 10:43:58;;;;;;;0.75;0.75;;;;;;;;;;4546249;28;20124;-64
2022/12/14 10:46:11;;;;;;;0.50;0.50;;;;;;;;;;4545308;28;20033;-64
2022/12/14 10:48:22;;;;;;;0.70;0.70;;;;;;;;;;4546580;28;21107;-64
2022/12/14 10:50:45;;;;;;;1.00;0.90;;;;;;;;;;4547383;28;20029;-64
2022/12/14 10:52:56;;;;;;;0.70;0.70;;;;;;;;;;4545030;28;20041;-63
2022/12/14 10:55:12;;;;;;;0.68;0.68;;;;;;;;;;4545541;28;20021;-64
2022/12/14 10:57:27;;;;;;;0.70;0.70;;;;;;;;;;4544813;28;20059;-64
2022/12/14 10:59:37;;;;;;;0.52;0.52;;;;;;;;;;4546113;28;20041;-64
2022/12/14 11:01:59;;;;;;;0.70;0.70;;;;;;;;;;4545606;28;20032;-64
2022/12/14 11:04:28;;;;;;;0.70;0.70;;;;;;;;;;4548335;28;20037;-64
2022/12/14 11:06:38;;;;;;;5.05;3.95;;;;;;;;;;4546285;28;20051;-64
2022/12/14 11:08:49;;;;;;;3.13;2.75;;;;;;;;;;4543726;28;20060;-63
2022/12/14 11:11:06;;;;;;;2.83;2.50;;;;;;;;;;4546728;28;20043;-63
2022/12/14 11:13:17;;;;;;;3.30;2.58;;;;;;;;;;4545394;28;20114;-64
2022/12/14 11:15:41;;;;;;;3.03;2.70;;;;;;;;;;4547142;28;20037;-64
2022/12/14 11:17:59;;;;;;;3.40;2.78;;;;;;;;;;4545016;28;20439;-64
2022/12/14 11:20:10;;;;;;;3.47;2.90;;;;;;;;;;4544672;28;20400;-66
2022/12/14 11:22:20;;;;;;;3.45;2.95;;;;;;;;;;4529647;28;20068;-64
2022/12/14 11:24:30;;;;;;;3.47;2.50;;;;;;;;;;4542662;28;20849;-64
2022/12/14 11:26:41;;;;;;;3.22;2.67;;;;;;;;;;4546493;28;20029;-64
2022/12/14 11:28:53;;;;;;;2.92;2.58;;;;;;;;;;4545146;28;20040;-64
2022/12/14 11:31:09;;;;;;;3.30;2.80;;;;;;;;;;4547647;28;20090;-64
2022/12/14 11:33:19;;;;;;;2.92;2.50;;;;;;;;;;4547567;28;20037;-64
2022/12/14 11:35:29;;;;;;;3.28;2.50;;;;;;;;;;4544493;28;20514;-64
2022/12/14 11:37:40;;;;;;;3.17;2.88;;;;;;;;;;4544777;28;20063;-64
2022/12/14 11:39:58;;;;;;;3.10;2.80;;;;;;;;;;4545326;28;20032;-64
2022/12/14 11:42:16;;;;;;;3.10;2.80;;;;;;;;;;4545810;28;20151;-64
2022/12/14 11:44:32;;;;;;;2.90;2.60;;;;;;;;;;4544400;28;20040;-64
2022/12/14 11:46:52;;;;;;;3.30;2.85;;;;;;;;;;4543174;28;20044;-64
2022/12/14 11:49:02;;;;;;;3.13;2.83;;;;;;;;;;4545260;28;20556;-64
2022/12/14 11:51:13;;;;;;;3.42;2.80;;;;;;;;;;4530806;28;20104;-64
2022/12/14 11:53:23;;;;;;;3.28;2.70;;;;;;;;;;4544315;28;20103;-64
2022/12/14 11:55:37;;;;;;;3.00;2.60;;;;;;;;;;4527586;28;20030;-64
2022/12/14 11:57:50;;;;;;;2.92;2.63;;;;;;;;;;4544647;28;20029;-64
2022/12/14 12:00:03;;;;;;;3.92;3.35;;;;;;;;;;4544394;28;20051;-63
2022/12/14 12:02:21;;;;;;;3.15;2.72;;;;;;;;;;4543573;28;20596;-64
2022/12/14 12:04:42;;;;;;;3.38;2.63;;;;;;;;;;4543800;28;20029;-64
2022/12/14 12:06:53;;;;;;;4.55;3.30;;;;;;;;;;4530041;28;20045;-64
2022/12/14 12:09:22;;;;;;;3.05;2.75;;;;;;;;;;4544493;28;20422;-64
2022/12/14 12:11:33;;;;;;;3.97;3.13;;;;;;;;;;4532231;28;20572;-64
2022/12/14 12:13:46;;;;;;;3.45;2.88;;;;;;;;;;4543028;28;20040;-64
2022/12/14 12:16:04;;;;;;;4.07;3.10;;;;;;;;;;4545824;28;20103;-64
2022/12/14 12:18:14;;;;;;;3.10;2.63;;;;;;;;;;4545124;28;20037;-64
2022/12/14 12:20:29;;;;;;;3.55;2.70;;;;;;;;;;4546250;28;20029;-64
2022/12/14 12:22:43;;;;;;;3.45;2.70;;;;;;;;;;4527616;28;20092;-64
2022/12/14 12:24:56;;;;;;;3.30;3.00;;;;;;;;;;4543729;28;20737;-64
2022/12/14 12:27:10;;;;;;;3.22;2.75;;;;;;;;;;4525223;28;20048;-63
2022/12/14 12:29:39;;;;;;;3.20;2.35;;;;;;;;;;4544861;28;20040;-64
2022/12/14 12:31:50;;;;;;;2.90;2.60;;;;;;;;;;4543006;28;20033;-64
2022/12/14 12:34:09;;;;;;;3.05;2.60;;;;;;;;;;4544315;28;20485;-64
2022/12/14 12:36:19;;;;;;;2.60;2.30;;;;;;;;;;4545631;28;20084;-63
2022/12/14 12:38:45;;;;;;;3.63;2.85;;;;;;;;;;4535977;28;20556;-64
2022/12/14 12:41:07;;;;;;;3.30;2.63;;;;;;;;;;4528060;28;20149;-64
2022/12/14 12:43:22;;;;;;;2.70;2.40;;;;;;;;;;4545020;28;21349;-64
2022/12/14 12:45:47;;;;;;;2.70;2.38;;;;;;;;;;4544291;28;20036;-64
2022/12/14 12:48:00;;;;;;;3.55;3.00;;;;;;;;;;4544180;28;20033;-64
2022/12/14 12:50:18;;;;;;;3.20;2.67;;;;;;;;;;4543097;28;20135;-64
2022/12/14 12:52:33;;;;;;;3.17;2.50;;;;;;;;;;4543724;28;20032;-64
2022/12/14 12:55:00;;;;;;;3.05;2.63;;;;;;;;;;4537233;28;20064;-64
2022/12/14 12:57:11;;;;;;;3.42;3.10;;;;;;;;;;4536550;28;20037;-64
2022/12/14 12:59:38;;;;;;;3.60;2.90;;;;;;;;;;4545992;28;20485;-64
2022/12/14 13:01:51;;;;;;;4.47;3.72;;;;;;;;;;4544524;28;20076;-63
2022/12/14 13:04:09;;;;;;;7.50;6.30;;;;;;;;;;4547332;28;20033;-64
2022/12/14 13:06:26;;;;;;;5.78;4.57;;;;;;;;;;4547951;28;20162;-64
2022/12/14 13:08:38;;;;;;;4.15;3.72;;;;;;;;;;4547747;28;20049;-64
2022/12/14 13:10:49;;;;;;;3.90;3.03;;;;;;;;;;4547900;28;20044;-64
2022/12/14 13:12:59;;;;;;;3.05;2.70;;;;;;;;;;4546082;28;20037;-64
2022/12/14 13:15:30;;;;;;;3.40;2.75;;;;;;;;;;4549789;28;20033;-64
2022/12/14 13:17:43;;;;;;;3.10;2.80;;;;;;;;;;4546538;28;20622;-64
2022/12/14 13:19:54;;;;;;;3.05;2.70;;;;;;;;;;4548599;28;20108;-64
2022/12/14 13:22:08;;;;;;;3.97;3.10;;;;;;;;;;4547432;28;20037;-64
2022/12/14 13:24:20;;;;;;;3.50;3.20;;;;;;;;;;4547959;28;20103;-64
2022/12/14 13:26:46;;;;;;;3.60;2.90;;;;;;;;;;4549546;28;20112;-64
2022/12/14 13:29:03;;;;;;;4.13;3.20;;;;;;;;;;4547791;28;21400;-64
2022/12/14 13:31:17;;;;;;;4.05;3.60;;;;;;;;;;4547010;28;20272;-64
2022/12/14 13:33:33;;;;;;;4.40;3.65;;;;;;;;;;4547831;28;21013;-64
2022/12/14 13:36:02;;;;;;;4.13;3.50;;;;;;;;;;4548696;28;20123;-64